Templeville, Maryland
Current Conditions -  °F | °C
As of 4:58 PM on Monday 20 Oct 2014 (Local Time) from KDOV Reporting Station
Clear Clear  
Wind Chill: 63°   Ceiling: Unl
Heat Index: 63°   Visibility: 7mi
Dew Point: 43°   Wind: 10mph
Humidity: 48%   Direction: 190°S
Pressure: 29.96"   Gusts: NA
Location:  39.14°N, 75.77°W
Report Text: KDOV 202058Z AUTO 19009KT 7SM CLR 17/06 A2996 RMK AO2 SLP149 T01740062 57016
Loading
Personal Weather Stations






























Interactive Weather Map
Tropical Storm Tracking
New forecast layout! Learn more

10-Day Weather Forecast

Advertisements
Track Severe Weather on mobile